Time;durP1;ratioP1;P1;durP2;ratioP2;P2;SDS_P1;SDS_P2;PMS_P1;PMS_P2;Temp;Humidity;BMP_temperature;BMP_pressure;BME280_temperature;BME280_humidity;BME280_pressure;Samples;Min_cycle;Max_cycle;Signal;HPM_P1;HPM_P2
2021/07/14 00:00:20;;;;;;;14.58;9.18;;;;;;;15.41;97.81;93213.97;1745616;79;21065;-82
2021/07/14 00:02:48;;;;;;;9.50;8.40;;;;;;;15.34;98.28;93216.28;1745778;80;21524;-81
2021/07/14 00:05:17;;;;;;;11.45;8.68;;;;;;;15.33;98.54;93219.47;1746886;81;21007;-79
2021/07/14 00:07:44;;;;;;;11.88;8.90;;;;;;;15.34;98.81;93220.39;1746920;80;21750;-79
2021/07/14 00:10:17;;;;;;;13.10;8.98;;;;;;;15.42;98.59;93223.72;1746091;82;21034;-79
2021/07/14 00:12:54;;;;;;;15.45;9.88;;;;;;;15.51;98.10;93226.03;1746513;80;21045;-79
2021/07/14 00:23:29;;;;;;;12.45;11.10;;;;;;;15.59;97.01;93227.22;1747097;82;21110;-80
2021/07/14 00:25:56;;;;;;;15.90;11.63;;;;;;;15.59;97.06;93232.09;1747107;79;20975;-81
2021/07/14 00:28:23;;;;;;;10.70;9.58;;;;;;;15.64;96.98;93226.69;1747290;81;21055;-80
2021/07/14 00:30:53;;;;;;;11.70;9.68;;;;;;;15.63;96.34;93228.66;1746291;81;21121;-80
2021/07/14 00:33:18;;;;;;;12.75;10.03;;;;;;;15.51;96.10;93230.14;1745474;82;21256;-81
2021/07/14 00:35:44;;;;;;;10.95;9.88;;;;;;;15.38;96.71;93236.14;1745437;82;21058;-82
2021/07/14 00:38:12;;;;;;;10.23;9.08;;;;;;;15.34;97.41;93231.95;1746157;81;21552;-80
2021/07/14 00:40:39;;;;;;;12.13;9.20;;;;;;;15.36;97.25;93232.31;1745700;81;21053;-82
2021/07/14 00:43:08;;;;;;;9.63;8.63;;;;;;;15.30;97.10;93237.52;1746491;81;21077;-82
2021/07/14 00:45:35;;;;;;;10.05;9.15;;;;;;;15.24;97.31;93236.52;1746231;80;22765;-81
2021/07/14 00:48:02;;;;;;;10.08;8.85;;;;;;;15.23;97.23;93240.43;1746339;82;21066;-80
2021/07/14 00:50:28;;;;;;;10.15;9.25;;;;;;;15.22;97.28;93238.30;1747897;82;21046;-81
2021/07/14 00:52:55;;;;;;;10.08;9.08;;;;;;;15.17;97.15;93238.82;1746992;80;21006;-80
2021/07/14 00:55:23;;;;;;;10.38;9.30;;;;;;;15.11;97.32;93237.78;1746947;80;20968;-82
2021/07/14 00:57:50;;;;;;;9.98;9.08;;;;;;;15.10;97.48;93236.25;1747564;82;21565;-81
2021/07/14 01:00:16;;;;;;;10.00;9.00;;;;;;;15.13;97.17;93242.85;1747428;82;21118;-81
2021/07/14 01:02:43;;;;;;;10.58;9.40;;;;;;;15.11;96.97;93240.52;1747234;82;21046;-82
2021/07/14 01:05:22;;;;;;;10.15;9.03;;;;;;;15.09;97.04;93242.17;1747335;80;21100;-80
2021/07/14 01:07:55;;;;;;;10.70;9.58;;;;;;;15.07;96.96;93241.21;1747373;82;21081;-79
2021/07/14 01:10:28;;;;;;;9.73;8.83;;;;;;;15.02;97.01;93240.36;1747790;81;21124;-81
2021/07/14 01:13:09;;;;;;;9.78;8.70;;;;;;;14.98;97.31;93245.92;1747019;81;21030;-81
2021/07/14 01:15:43;;;;;;;9.68;8.70;;;;;;;15.00;97.62;93245.48;1747091;80;21099;-80
2021/07/14 01:18:35;;;;;;;10.00;8.70;;;;;;;14.98;97.21;93241.81;1747484;82;21544;-80
2021/07/14 01:21:26;;;;;;;10.60;9.50;;;;;;;14.97;97.18;93245.76;1747096;79;21126;-79
2021/07/14 01:24:01;;;;;;;11.20;10.10;;;;;;;14.94;97.48;93241.13;1747514;82;21065;-79
2021/07/14 01:26:53;;;;;;;10.55;9.43;;;;;;;14.89;98.36;93245.73;1704656;83;21044;-80
2021/07/14 01:29:19;;;;;;;11.65;10.03;;;;;;;14.84;99.09;93246.84;1694434;83;21520;-79
2021/07/14 01:31:47;;;;;;;12.00;10.60;;;;;;;14.87;98.85;93248.73;1721446;83;21018;-81
2021/07/14 01:34:13;;;;;;;11.10;10.00;;;;;;;14.94;98.87;93240.36;1752679;81;21093;-80
2021/07/14 01:36:43;;;;;;;9.65;8.75;;;;;;;14.99;98.32;93243.34;1760512;79;22246;-80
2021/07/14 01:39:09;;;;;;;11.53;9.93;;;;;;;14.96;97.80;93246.94;1784809;80;21613;-80
2021/07/14 01:41:40;;;;;;;10.65;9.65;;;;;;;14.89;97.39;93244.96;1785254;80;21056;-79
2021/07/14 01:44:06;;;;;;;9.53;8.53;;;;;;;14.80;97.68;93244.95;1785434;80;21021;-80
2021/07/14 01:46:34;;;;;;;10.23;9.08;;;;;;;14.78;97.73;93247.94;1785497;79;21480;-80
2021/07/14 01:49:15;;;;;;;10.93;9.65;;;;;;;14.71;97.69;93244.02;1785280;80;21123;-81
2021/07/14 01:51:50;;;;;;;10.75;9.65;;;;;;;14.63;98.06;93250.25;1785483;80;21443;-80
2021/07/14 01:54:16;;;;;;;9.58;8.58;;;;;;;14.60;98.56;93248.36;1785412;80;21028;-80
2021/07/14 01:56:43;;;;;;;10.55;9.05;;;;;;;14.59;98.90;93244.05;1737324;79;21013;-79
2021/07/14 01:59:11;;;;;;;10.20;9.20;;;;;;;14.51;99.05;93237.20;1784979;79;21049;-78
2021/07/14 02:01:40;;;;;;;14.50;9.23;;;;;;;14.43;99.52;93234.42;1784764;78;21530;-78
2021/07/14 02:06:53;;;;;;;10.08;8.90;;;;;;;14.41;100.00;93243.06;1796392;79;20997;-78
2021/07/14 02:09:20;;;;;;;10.63;9.60;;;;;;;14.50;99.94;93246.02;1771521;81;21589;-78
2021/07/14 02:11:47;;;;;;;13.70;10.13;;;;;;;14.53;99.63;93243.03;1771328;80;20977;-79
2021/07/14 02:14:16;;;;;;;10.95;9.88;;;;;;;14.56;99.84;93244.93;1770289;79;21453;-78
2021/07/14 02:16:45;;;;;;;10.95;9.63;;;;;;;14.60;99.77;93245.63;1770778;79;21600;-78
2021/07/14 02:19:16;;;;;;;10.68;9.58;;;;;;;14.67;99.29;93244.09;1770782;81;21046;-78
2021/07/14 02:21:44;;;;;;;9.63;8.60;;;;;;;14.65;98.67;93238.87;1770829;81;21203;-78
2021/07/14 02:24:13;;;;;;;10.68;9.60;;;;;;;14.57;98.74;93249.97;1771074;81;21532;-79
2021/07/14 02:26:42;;;;;;;10.50;9.50;;;;;;;14.55;98.94;93250.20;1770527;79;20994;-79
2021/07/14 02:29:09;;;;;;;10.72;9.65;;;;;;;14.54;99.05;93241.23;1770621;79;21487;-80
2021/07/14 02:31:36;;;;;;;13.05;10.82;;;;;;;14.58;99.35;93239.78;1778172;80;21048;-80
2021/07/14 02:34:02;;;;;;;12.00;10.80;;;;;;;14.63;99.18;93247.52;1791271;79;21558;-78
2021/07/14 02:36:31;;;;;;;12.18;10.98;;;;;;;14.65;98.55;93245.70;1802902;79;21023;-78
2021/07/14 02:39:01;;;;;;;12.55;10.18;;;;;;;14.63;98.17;93242.04;1747049;81;21195;-79
2021/07/14 02:41:48;;;;;;;11.70;9.90;;;;;;;14.67;98.11;93244.09;1770327;79;21021;-78
2021/07/14 02:44:15;;;;;;;10.93;9.88;;;;;;;14.71;97.53;93242.05;1782913;80;21009;-79
2021/07/14 02:46:45;;;;;;;11.33;10.13;;;;;;;14.71;97.01;93248.13;1796537;79;21558;-80
2021/07/14 02:49:13;;;;;;;12.30;9.55;;;;;;;14.67;97.04;93241.36;1800321;79;21071;-79
2021/07/14 02:51:40;;;;;;;12.13;10.80;;;;;;;14.65;97.06;93237.50;1789339;79;21161;-79
2021/07/14 02:54:21;;;;;;;11.55;9.90;;;;;;;14.65;97.00;93238.27;1781349;79;21023;-79
2021/07/14 02:57:01;;;;;;;10.05;9.15;;;;;;;14.67;96.41;93242.73;1725534;80;21561;-79
2021/07/14 02:59:32;;;;;;;12.30;10.30;;;;;;;14.66;95.66;93231.59;1791260;79;21040;-79
2021/07/14 03:02:00;;;;;;;10.48;8.65;;;;;;;14.56;95.70;93227.91;1791057;79;21622;-78
2021/07/14 03:04:37;;;;;;;10.60;9.60;;;;;;;14.45;96.03;93225.21;1774007;80;21082;-79
2021/07/14 03:07:08;;;;;;;10.72;9.70;;;;;;;14.34;96.73;93228.17;1787201;79;21590;-79
2021/07/14 03:12:15;;;;;;;9.85;8.88;;;;;;;14.37;96.31;93223.23;1769578;81;20977;-78
2021/07/14 03:15:07;;;;;;;12.82;10.60;;;;;;;14.38;96.29;93221.26;1770282;79;21580;-80
2021/07/14 03:17:34;;;;;;;10.98;9.88;;;;;;;14.38;96.32;93232.97;1770890;79;21121;-81
2021/07/14 03:20:08;;;;;;;20.15;11.97;;;;;;;14.41;96.65;93231.36;1771008;79;21488;-79
2021/07/14 03:22:38;;;;;;;14.55;12.15;;;;;;;14.37;96.72;93227.91;1770541;80;21045;-82
2021/07/14 03:25:06;;;;;;;16.30;12.60;;;;;;;14.35;97.00;93236.54;1772281;80;21162;-81
2021/07/14 03:27:32;;;;;;;32.83;18.67;;;;;;;14.33;97.11;93228.77;1787238;80;21060;-80
2021/07/14 03:29:58;;;;;;;52.00;27.85;;;;;;;14.31;97.08;93230.38;1802586;79;21046;-79
2021/07/14 03:32:25;;;;;;;148.57;76.57;;;;;;;14.28;96.83;93238.06;1792365;79;21056;-80
2021/07/14 03:34:53;;;;;;;90.65;50.25;;;;;;;14.24;96.75;93241.47;1794518;79;21149;-80
2021/07/14 03:37:21;;;;;;;46.45;26.48;;;;;;;14.26;97.02;93245.92;1795663;79;21033;-82
2021/07/14 03:39:49;;;;;;;43.68;25.65;;;;;;;14.27;97.35;93240.02;1748126;78;21581;-80
2021/07/14 03:42:16;;;;;;;81.63;40.33;;;;;;;14.29;97.68;93241.75;1787289;80;21188;-79
2021/07/14 03:44:46;;;;;;;275.15;120.50;;;;;;;14.33;97.64;93232.87;1803497;79;21468;-79
2021/07/14 03:47:14;;;;;;;104.03;51.70;;;;;;;14.38;97.29;93238.44;1806092;79;20941;-80
2021/07/14 03:49:41;;;;;;;141.30;68.02;;;;;;;14.43;97.24;93244.77;1793427;79;20993;-81
2021/07/14 03:52:09;;;;;;;120.08;59.38;;;;;;;14.45;97.45;93238.89;1771024;79;21077;-78
2021/07/14 03:54:37;;;;;;;68.60;35.10;;;;;;;14.50;97.30;93237.03;1771725;81;21132;-81
2021/07/14 03:57:04;;;;;;;51.90;27.73;;;;;;;14.53;96.95;93238.94;1786806;79;21450;-81
2021/07/14 03:59:31;;;;;;;48.28;24.72;;;;;;;14.53;96.94;93239.70;1798416;79;21064;-80
2021/07/14 04:01:57;;;;;;;81.00;39.25;;;;;;;14.56;96.85;93243.56;1788180;79;21941;-81
2021/07/14 04:04:24;;;;;;;87.72;47.43;;;;;;;14.57;96.86;93238.25;1755783;79;21087;-80
2021/07/14 04:09:23;;;;;;;77.90;42.78;;;;;;;14.70;96.50;93239.12;1790902;80;21004;-81
2021/07/14 04:11:58;;;;;;;27.05;17.65;;;;;;;14.75;96.77;93246.08;1787077;78;21071;-83
2021/07/14 04:14:26;;;;;;;16.70;12.73;;;;;;;14.83;96.85;93248.81;1763868;79;21059;-81
2021/07/14 04:16:55;;;;;;;78.67;35.20;;;;;;;14.92;96.62;93250.36;1797893;79;21016;-80
2021/07/14 04:19:22;;;;;;;72.40;31.70;;;;;;;15.01;96.19;93248.41;1792922;79;21181;-81
2021/07/14 04:21:49;;;;;;;52.25;26.68;;;;;;;15.13;95.83;93248.33;1804139;79;21055;-81
2021/07/14 04:24:15;;;;;;;50.08;28.07;;;;;;;15.22;95.81;93246.52;1788624;78;20949;-80
2021/07/14 04:26:42;;;;;;;31.85;17.07;;;;;;;15.37;95.50;93245.56;1800055;79;21071;-81
2021/07/14 04:29:08;;;;;;;19.32;13.00;;;;;;;15.54;95.27;93247.70;1788764;79;21053;-82
2021/07/14 04:31:36;;;;;;;12.73;10.40;;;;;;;15.72;94.60;93248.05;1770942;81;21073;-82
2021/07/14 04:34:03;;;;;;;;;;;;;;;;;;;;;
2021/07/14 04:36:47;;;;;;;14.33;11.63;;;;;;;16.08;92.37;93248.44;1804199;79;21051;-80
2021/07/14 04:39:14;;;;;;;13.32;11.05;;;;;;;16.21;91.74;93245.72;1766077;79;21108;-82
2021/07/14 04:41:41;;;;;;;12.40;10.40;;;;;;;16.33;91.47;93242.88;1771692;80;21077;-83
2021/07/14 04:44:10;;;;;;;12.58;10.70;;;;;;;16.53;90.59;93248.94;1770249;79;21326;-82
2021/07/14 04:46:36;;;;;;;11.40;10.25;;;;;;;16.68;90.00;93251.42;1755380;79;21056;-84
2021/07/14 04:49:03;;;;;;;11.83;10.68;;;;;;;16.84;89.44;93251.19;1787043;80;21020;-85
2021/07/14 04:51:29;;;;;;;11.80;10.60;;;;;;;17.01;88.45;93249.11;1801877;78;21170;-79
2021/07/14 04:53:57;;;;;;;13.50;10.88;;;;;;;17.11;87.30;93251.53;1778331;78;21123;-80
2021/07/14 04:56:23;;;;;;;13.25;11.85;;;;;;;17.13;87.13;93246.95;1778623;77;21078;-80
2021/07/14 04:58:52;;;;;;;12.20;10.90;;;;;;;17.18;87.05;93253.27;1769508;79;21091;-82
2021/07/14 05:01:18;;;;;;;13.25;11.57;;;;;;;17.19;87.07;93244.59;1776578;79;21335;-81
2021/07/14 05:03:45;;;;;;;13.05;11.30;;;;;;;17.24;86.91;93246.02;1796693;78;21117;-80
2021/07/14 05:06:15;;;;;;;16.10;11.97;;;;;;;17.29;86.65;93241.33;1761876;79;21115;-81
2021/07/14 05:08:42;;;;;;;11.68;10.38;;;;;;;17.34;87.09;93242.16;1754825;81;21071;-83
2021/07/14 05:11:08;;;;;;;12.93;11.63;;;;;;;17.40;87.25;93236.86;1721016;81;21013;-79
2021/07/14 05:13:36;;;;;;;15.83;11.90;;;;;;;17.48;87.74;93238.92;1739861;80;21509;-81
2021/07/14 05:16:03;;;;;;;14.83;12.80;;;;;;;17.61;87.77;93238.91;1761878;79;21095;-82
2021/07/14 05:18:33;;;;;;;16.90;13.48;;;;;;;17.75;88.31;93239.63;1776950;79;21463;-80
2021/07/14 05:21:00;;;;;;;20.50;15.60;;;;;;;17.94;88.65;93239.96;1778842;79;21112;-79
2021/07/14 05:23:26;;;;;;;22.80;17.15;;;;;;;18.19;87.93;93245.97;1740577;81;21057;-83
2021/07/14 05:25:53;;;;;;;18.77;14.40;;;;;;;18.38;86.72;93239.37;1770996;79;21099;-87
2021/07/14 05:28:21;;;;;;;13.10;11.63;;;;;;;18.58;86.30;93239.63;1775956;79;21044;-80
2021/07/14 05:30:47;;;;;;;12.33;10.80;;;;;;;18.80;84.73;93240.39;1778351;79;21666;-84
2021/07/14 05:33:15;;;;;;;12.00;10.82;;;;;;;19.06;83.44;93234.08;1789236;77;22134;-84
2021/07/14 05:35:41;;;;;;;13.00;11.55;;;;;;;19.41;82.48;93231.14;1778647;79;21673;-80
2021/07/14 05:38:08;;;;;;;14.30;12.90;;;;;;;19.87;81.78;93224.33;1777252;77;21058;-78
2021/07/14 05:40:34;;;;;;;13.58;11.50;;;;;;;20.34;80.03;93220.31;1800793;77;21155;-84
2021/07/14 05:43:00;;;;;;;11.08;9.98;;;;;;;20.63;77.62;93216.31;1772681;79;21079;-82
2021/07/14 05:45:28;;;;;;;11.57;10.48;;;;;;;20.73;75.47;93217.20;1753883;79;21162;-82
2021/07/14 05:47:56;;;;;;;12.07;10.98;;;;;;;20.69;74.56;93222.12;1748728;80;21678;-81
2021/07/14 05:50:27;;;;;;;12.07;10.88;;;;;;;20.62;74.77;93222.45;1731644;79;21113;-81
2021/07/14 05:52:54;;;;;;;11.53;10.43;;;;;;;20.54;74.04;93222.63;1739886;79;21666;-80
2021/07/14 05:55:21;;;;;;;11.73;10.53;;;;;;;20.43;74.46;93225.84;1766279;79;21088;-80
2021/07/14 05:57:51;;;;;;;11.93;10.72;;;;;;;20.37;74.67;93218.02;1789589;79;21077;-80
2021/07/14 06:00:17;;;;;;;11.38;10.18;;;;;;;20.36;74.86;93212.34;1744754;80;21060;-81
2021/07/14 06:02:46;;;;;;;11.95;10.85;;;;;;;20.48;75.12;93214.16;1764409;78;21053;-83
2021/07/14 06:05:13;;;;;;;11.93;10.70;;;;;;;20.70;74.25;93216.75;1771317;79;21037;-83
2021/07/14 06:07:42;;;;;;;11.50;10.38;;;;;;;20.97;73.94;93218.65;1775114;78;21047;-82
2021/07/14 06:10:12;;;;;;;11.38;10.38;;;;;;;21.31;73.18;93216.66;1772004;78;21450;-80
2021/07/14 06:12:39;;;;;;;11.38;10.28;;;;;;;21.66;72.05;93210.64;1770597;78;21084;-81
2021/07/14 06:15:08;;;;;;;12.60;11.40;;;;;;;21.89;71.49;93207.11;1768068;78;21019;-83
2021/07/14 06:17:35;;;;;;;12.07;10.88;;;;;;;22.05;70.61;93202.52;1772533;78;21014;-83
2021/07/14 06:20:06;;;;;;;11.18;10.10;;;;;;;22.13;70.26;93200.14;1765085;78;21162;-85
2021/07/14 06:22:32;;;;;;;13.32;11.15;;;;;;;22.19;70.91;93206.59;1734282;80;21654;-83
2021/07/14 06:24:59;;;;;;;11.33;9.70;;;;;;;22.27;70.16;93203.59;1774017;79;21057;-82
2021/07/14 06:27:27;;;;;;;13.80;11.18;;;;;;;22.37;69.77;93202.11;1769164;78;21579;-82
2021/07/14 06:29:54;;;;;;;11.20;10.08;;;;;;;22.43;69.76;93205.13;1767909;78;21076;-85
2021/07/14 06:32:20;;;;;;;11.43;10.43;;;;;;;22.47;69.12;93204.32;1775057;78;21096;-82
2021/07/14 06:34:49;;;;;;;11.93;10.82;;;;;;;22.49;68.69;93203.23;1778907;79;21445;-82
2021/07/14 06:37:19;;;;;;;12.35;11.03;;;;;;;22.49;68.72;93203.23;1768040;78;21152;-80
2021/07/14 06:39:47;;;;;;;15.83;11.48;;;;;;;22.46;68.74;93200.02;1777026;79;21150;-78
2021/07/14 06:42:14;;;;;;;11.93;10.78;;;;;;;22.43;68.75;93201.59;1766290;78;21096;-81
2021/07/14 06:44:43;;;;;;;12.68;11.40;;;;;;;22.42;69.68;93198.07;1770880;78;21631;-77
2021/07/14 06:47:12;;;;;;;12.73;10.78;;;;;;;22.44;69.32;93203.13;1773413;79;21410;-80
2021/07/14 06:49:40;;;;;;;11.03;10.03;;;;;;;22.49;69.60;93201.06;1776469;78;21772;-79
2021/07/14 06:52:08;;;;;;;11.53;10.50;;;;;;;22.50;68.86;93193.67;1774550;79;21060;-81
2021/07/14 06:54:38;;;;;;;12.18;11.00;;;;;;;22.50;67.96;93190.14;1773347;79;21077;-81
2021/07/14 06:57:05;;;;;;;12.37;10.90;;;;;;;22.50;67.19;93189.52;1776599;79;21061;-78
2021/07/14 06:59:32;;;;;;;11.57;10.38;;;;;;;22.48;67.95;93186.45;1773561;79;21829;-83
2021/07/14 07:02:02;;;;;;;12.05;10.85;;;;;;;22.52;68.53;93184.25;1773574;80;21049;-83
2021/07/14 07:04:29;;;;;;;12.30;10.85;;;;;;;22.60;68.82;93188.78;1732406;80;21073;-84
2021/07/14 07:06:58;;;;;;;12.18;11.00;;;;;;;22.68;69.13;93186.39;1762106;79;21613;-81
2021/07/14 07:09:28;;;;;;;12.18;10.88;;;;;;;22.76;68.03;93183.41;1744094;80;21074;-84
2021/07/14 07:24:40;;;;;;;18.82;10.18;;;;;;;23.93;65.99;93173.87;1841383;74;22655;-80
2021/07/14 07:27:08;;;;;;;12.63;10.55;;;;;;;23.98;66.62;93170.38;1794003;78;21552;-80
2021/07/14 07:29:36;;;;;;;12.88;10.72;;;;;;;24.06;65.79;93174.89;1789526;78;21129;-82
2021/07/14 07:32:03;;;;;;;14.70;10.93;;;;;;;24.13;64.78;93165.50;1787953;77;21034;-83
2021/07/14 07:34:30;;;;;;;11.78;10.58;;;;;;;24.24;64.55;93162.08;1772594;78;21271;-82
2021/07/14 07:36:59;;;;;;;13.20;10.68;;;;;;;24.32;63.20;93163.17;1725582;81;21063;-81
2021/07/14 07:39:27;;;;;;;11.57;10.15;;;;;;;24.36;63.12;93159.55;1784559;78;21071;-83
2021/07/14 07:41:56;;;;;;;13.83;11.80;;;;;;;24.44;61.34;93154.34;1738336;81;22241;-83
2021/07/14 07:44:23;;;;;;;11.00;9.93;;;;;;;24.57;62.24;93156.75;1733855;81;21075;-83
2021/07/14 07:46:50;;;;;;;11.38;9.75;;;;;;;24.69;61.09;93154.95;1747125;79;21062;-81
2021/07/14 07:49:26;;;;;;;18.70;11.28;;;;;;;24.78;59.79;93149.08;1749680;80;21355;-82
2021/07/14 07:51:53;;;;;;;11.10;10.15;;;;;;;24.85;59.47;93152.80;1754684;78;21602;-81
2021/07/14 07:54:20;;;;;;;11.90;10.35;;;;;;;24.90;58.93;93145.91;1724936;78;22313;-82
2021/07/14 07:56:48;;;;;;;11.22;10.10;;;;;;;24.98;60.35;93144.83;1751697;80;21077;-84
2021/07/14 07:59:16;;;;;;;11.30;9.95;;;;;;;25.05;59.20;93136.63;1757981;78;21118;-82
2021/07/14 08:01:45;;;;;;;11.97;10.32;;;;;;;25.11;59.39;93140.26;1780425;77;21162;-82
2021/07/14 08:04:12;;;;;;;13.60;10.85;;;;;;;25.16;58.14;93143.09;1797204;77;21085;-81
2021/07/14 08:06:41;;;;;;;11.08;9.70;;;;;;;25.23;57.59;93136.91;1741533;77;21076;-82
2021/07/14 08:09:07;;;;;;;10.80;9.75;;;;;;;25.29;58.72;93137.72;1758555;79;21053;-80
2021/07/14 08:11:34;;;;;;;12.30;9.90;;;;;;;25.32;58.62;93134.70;1765559;79;21023;-82
2021/07/14 08:14:01;;;;;;;13.70;10.13;;;;;;;25.33;58.72;93132.05;1712051;80;22226;-81
2021/07/14 08:16:31;;;;;;;11.28;9.98;;;;;;;25.37;59.58;93122.08;1755301;79;21122;-86
2021/07/14 08:18:59;;;;;;;10.13;9.23;;;;;;;25.42;59.63;93116.53;1728027;80;21582;-84
2021/07/14 08:21:25;;;;;;;11.20;10.00;;;;;;;25.48;57.81;93119.98;1752640;79;21092;-80
2021/07/14 08:23:53;;;;;;;12.03;10.30;;;;;;;25.52;57.51;93115.70;1749172;79;21073;-81
2021/07/14 08:26:19;;;;;;;12.18;10.03;;;;;;;25.57;56.09;93123.94;1732030;80;21140;-82
2021/07/14 08:28:46;;;;;;;12.23;11.12;;;;;;;25.62;54.04;93130.19;1729271;80;21114;-81
2021/07/14 08:31:12;;;;;;;12.68;11.12;;;;;;;25.68;54.55;93132.34;1730666;81;21221;-84
2021/07/14 08:33:39;;;;;;;11.00;9.78;;;;;;;25.74;54.29;93134.53;1780202;78;21410;-83
2021/07/14 08:36:06;;;;;;;13.13;10.00;;;;;;;25.79;51.78;93130.27;1764897;78;21154;-84
2021/07/14 08:38:36;;;;;;;10.50;9.48;;;;;;;25.86;52.13;93127.01;1763481;78;21005;-83
2021/07/14 08:41:07;;;;;;;11.75;10.65;;;;;;;25.93;51.78;93122.35;1792441;78;21455;-84
2021/07/14 08:43:33;;;;;;;12.20;11.03;;;;;;;26.01;51.52;93120.59;1770756;79;21112;-82
2021/07/14 08:46:01;;;;;;;11.78;10.58;;;;;;;26.09;52.18;93122.27;1774400;78;21675;-81
2021/07/14 08:48:28;;;;;;;11.60;9.83;;;;;;;26.16;51.50;93117.60;1737266;80;21070;-84
2021/07/14 08:50:59;;;;;;;15.65;9.80;;;;;;;26.19;50.89;93115.20;1750912;80;21065;-81
2021/07/14 08:53:27;;;;;;;12.65;10.88;;;;;;;26.23;49.45;93114.96;1754778;79;21048;-83
2021/07/14 08:56:01;;;;;;;11.18;10.08;;;;;;;26.28;50.64;93111.41;1753780;79;21077;-80
2021/07/14 08:58:27;;;;;;;12.98;9.48;;;;;;;26.34;51.97;93111.55;1757081;79;21637;-83
2021/07/14 09:00:56;;;;;;;13.50;9.90;;;;;;;26.40;50.74;93106.77;1760291;79;20987;-82
2021/07/14 09:03:26;;;;;;;9.83;9.03;;;;;;;26.44;51.26;93112.70;1756830;79;21026;-84
2021/07/14 09:05:53;;;;;;;10.48;9.58;;;;;;;26.46;50.34;93106.78;1775197;78;21051;-85
2021/07/14 09:08:22;;;;;;;13.93;11.03;;;;;;;26.48;50.34;93109.05;1748104;80;21026;-81
2021/07/14 09:10:59;;;;;;;9.75;8.70;;;;;;;26.50;51.04;93115.66;1734322;80;21061;-85
2021/07/14 09:13:35;;;;;;;10.53;9.60;;;;;;;26.54;49.86;93111.98;1764417;79;21067;-84
2021/07/14 09:16:08;;;;;;;11.28;10.20;;;;;;;26.59;49.20;93118.21;1765988;80;21062;-84
2021/07/14 09:18:38;;;;;;;10.48;9.38;;;;;;;26.66;50.16;93114.77;1780383;78;21115;-82
2021/07/14 09:21:16;;;;;;;11.08;9.98;;;;;;;26.70;50.24;93113.89;1750450;80;21599;-83
2021/07/14 09:23:44;;;;;;;10.72;9.75;;;;;;;26.73;50.73;93110.09;1778366;78;21139;-83
2021/07/14 09:26:14;;;;;;;12.20;9.70;;;;;;;26.77;50.25;93109.20;1781072;78;21242;-82
2021/07/14 09:28:41;;;;;;;11.45;8.80;;;;;;;26.80;50.05;93105.40;1751193;79;21055;-80
2021/07/14 09:31:12;;;;;;;13.05;9.18;;;;;;;26.86;50.44;93107.56;1745984;80;21067;-82
2021/07/14 09:33:45;;;;;;;11.43;10.40;;;;;;;26.91;51.25;93109.58;1758053;79;21440;-81
2021/07/14 09:36:13;;;;;;;10.50;9.50;;;;;;;26.99;51.33;93107.03;1752029;79;21976;-82
2021/07/14 09:38:41;;;;;;;9.93;9.03;;;;;;;27.05;50.06;93102.98;1760988;79;21070;-81
2021/07/14 09:41:12;;;;;;;14.53;9.00;;;;;;;27.10;49.11;93107.02;1747553;80;20985;-83
2021/07/14 09:43:45;;;;;;;10.03;9.03;;;;;;;27.13;48.41;93107.43;1741354;79;21148;-81
2021/07/14 09:46:19;;;;;;;12.93;8.95;;;;;;;27.15;47.54;93108.30;1763293;79;21155;-82
2021/07/14 09:48:53;;;;;;;10.82;9.73;;;;;;;27.18;47.86;93102.47;1764911;79;20977;-82
2021/07/14 09:51:23;;;;;;;13.38;8.70;;;;;;;27.21;47.71;93101.45;1732222;80;21054;-83
2021/07/14 09:53:57;;;;;;;9.93;8.80;;;;;;;27.21;47.70;93107.03;1737719;80;21635;-81
2021/07/14 09:56:49;;;;;;;10.13;8.80;;;;;;;27.22;46.54;93107.78;1708453;81;21085;-82
2021/07/14 09:59:19;;;;;;;9.83;8.83;;;;;;;27.24;46.13;93104.63;1822513;76;21281;-82
2021/07/14 10:01:50;;;;;;;11.28;8.20;;;;;;;27.29;45.70;93101.05;1733904;78;20996;-81
2021/07/14 10:04:30;;;;;;;8.98;7.78;;;;;;;27.33;44.74;93097.36;1786377;78;21054;-83
2021/07/14 10:07:32;;;;;;;9.35;8.23;;;;;;;27.36;44.76;93093.55;1765487;78;21982;-83
2021/07/14 10:10:14;;;;;;;9.65;8.58;;;;;;;27.41;44.28;93094.04;1768949;79;21546;-82
2021/07/14 10:12:56;;;;;;;11.38;8.35;;;;;;;27.51;45.48;93089.70;1769943;78;21708;-82
2021/07/14 10:15:30;;;;;;;13.37;8.37;;;;;;;27.55;45.38;93083.97;1753603;79;21049;-82
2021/07/14 10:17:59;;;;;;;11.28;8.80;;;;;;;27.59;44.50;93080.91;1724986;79;21011;-83
2021/07/14 10:20:44;;;;;;;10.93;8.58;;;;;;;27.63;44.12;93086.98;1744205;80;21145;-83
2021/07/14 10:25:53;;;;;;;10.68;9.50;;;;;;;27.70;44.13;93082.91;1711066;83;21942;-83
2021/07/14 10:28:28;;;;;;;8.50;7.80;;;;;;;27.71;44.18;93081.63;1667520;83;21035;-85
2021/07/14 10:30:58;;;;;;;11.05;9.03;;;;;;;27.71;41.36;93076.79;1745923;80;21607;-82
2021/07/14 10:33:33;;;;;;;11.18;10.03;;;;;;;27.75;43.17;93080.10;1744992;80;21018;-82
2021/07/14 10:36:10;;;;;;;9.43;8.38;;;;;;;27.78;43.10;93080.47;1746059;81;21041;-86
2021/07/14 10:38:41;;;;;;;11.63;9.05;;;;;;;27.77;43.19;93075.41;1741687;80;21503;-83
2021/07/14 10:41:09;;;;;;;9.75;8.78;;;;;;;27.79;42.40;93077.80;1710105;81;21058;-82
2021/07/14 10:43:43;;;;;;;9.98;8.85;;;;;;;27.85;42.60;93083.38;1730609;81;21054;-85
2021/07/14 10:46:23;;;;;;;8.68;7.85;;;;;;;27.88;43.15;93078.16;1748189;80;20965;-84
2021/07/14 10:48:55;;;;;;;10.78;9.25;;;;;;;27.94;41.55;93076.72;1730988;81;21038;-83
2021/07/14 10:51:24;;;;;;;10.60;9.58;;;;;;;28.04;41.20;93076.54;1712613;81;21117;-83
2021/07/14 10:54:03;;;;;;;10.98;9.43;;;;;;;28.12;42.17;93081.70;1722139;80;21116;-84
2021/07/14 10:57:05;;;;;;;9.85;8.58;;;;;;;28.15;42.27;93077.88;1693353;83;21070;-82
2021/07/14 10:59:49;;;;;;;12.15;8.48;;;;;;;28.22;42.65;93079.36;1679772;81;21059;-83
2021/07/14 11:02:16;;;;;;;16.07;8.93;;;;;;;28.25;43.02;93083.28;1713048;81;21079;-82
2021/07/14 11:05:11;;;;;;;9.35;8.60;;;;;;;28.29;43.10;93071.19;1774696;79;21819;-85
2021/07/14 11:07:47;;;;;;;8.60;7.90;;;;;;;28.34;42.52;93073.81;1792388;78;21031;-87
2021/07/14 11:10:34;;;;;;;8.58;7.67;;;;;;;28.39;42.56;93072.28;1769642;78;21011;-83
2021/07/14 11:13:33;;;;;;;10.30;7.80;;;;;;;28.45;43.47;93065.37;1794131;77;21051;-82
2021/07/14 11:16:29;;;;;;;8.93;8.05;;;;;;;28.51;42.05;93068.12;1764086;77;21024;-83
2021/07/14 11:19:19;;;;;;;7.22;6.62;;;;;;;28.55;41.64;93065.83;1763648;77;21037;-82
2021/07/14 11:22:10;;;;;;;12.23;7.72;;;;;;;28.59;40.23;93064.14;1778010;78;21547;-82
2021/07/14 11:24:53;;;;;;;10.10;9.20;;;;;;;28.63;40.82;93066.02;1740193;80;21077;-83
2021/07/14 11:27:37;;;;;;;18.55;11.08;;;;;;;28.66;43.92;93064.34;1760311;79;21081;-83
2021/07/14 11:30:16;;;;;;;12.30;9.63;;;;;;;28.71;46.74;93064.17;1787425;78;21139;-82
2021/07/14 11:32:57;;;;;;;10.98;9.93;;;;;;;28.72;45.54;93060.84;1776496;78;21344;-80
2021/07/14 11:58:21;;;;;;;10.63;9.58;;;;;;;28.87;49.70;93061.09;1750827;79;21071;-83
2021/07/14 12:00:49;;;;;;;14.33;10.10;;;;;;;28.95;50.84;93064.84;1728811;80;21010;-84
2021/07/14 12:03:23;;;;;;;10.60;9.58;;;;;;;28.98;51.41;93065.22;1777931;78;21100;-85
2021/07/14 12:05:55;;;;;;;13.78;10.90;;;;;;;29.01;50.27;93068.38;1764541;78;21177;-84
2021/07/14 12:08:25;;;;;;;10.78;9.68;;;;;;;29.04;51.27;93068.09;1758145;79;21105;-84
2021/07/14 12:11:11;;;;;;;15.98;10.82;;;;;;;29.05;50.45;93063.25;1787808;78;21065;-87
2021/07/14 12:13:40;;;;;;;11.10;9.95;;;;;;;29.04;52.04;93062.49;1750572;79;21052;-86
2021/07/14 12:16:10;;;;;;;12.35;10.85;;;;;;;29.02;51.03;93065.69;1736809;79;21119;-85
2021/07/14 12:21:47;;;;;;;15.28;11.38;;;;;;;29.00;51.35;93066.87;1717120;80;21036;-85
2021/07/14 12:24:53;;;;;;;12.95;10.58;;;;;;;29.02;52.18;93065.05;1727390;80;21116;-88
2021/07/14 12:27:34;;;;;;;17.40;10.95;;;;;;;29.05;51.12;93067.45;1771988;79;21832;-88
2021/07/14 12:30:33;;;;;;;11.57;10.53;;;;;;;29.07;52.08;93069.71;1755055;79;21062;-82
2021/07/14 12:33:10;;;;;;;;;;;;;;;29.09;51.93;93060.92;1754520;78;21222;-85
2021/07/14 12:35:40;;;;;;;16.32;9.83;;;;;;;29.13;52.79;93065.58;1785289;78;20147;-85
2021/07/14 12:38:15;;;;;;;12.78;10.48;;;;;;;29.15;53.06;93060.23;1766194;79;21049;-86